Time;durP1;ratioP1;P1;durP2;ratioP2;P2;SDS_P1;SDS_P2;PMS_P1;PMS_P2;Temp;Humidity;BMP_temperature;BMP_pressure;BME280_temperature;BME280_humidity;BME280_pressure;Samples;Min_cycle;Max_cycle;Signal;HPM_P1;HPM_P2
2022/05/23 00:01:42;;;;;;;;;;;28.30;40.70;;;;;;5116449;28;944;-45
2022/05/23 00:04:11;;;;;;;;;;;28.30;40.70;;;;;;5117207;28;1040;-44
2022/05/23 00:06:37;;;;;;;;;;;28.30;40.80;;;;;;5115485;28;1905;-44
2022/05/23 00:09:04;;;;;;;;;;;28.30;40.80;;;;;;5116911;28;1007;-43
2022/05/23 00:11:31;;;;;;;;;;;28.30;40.80;;;;;;5116767;28;984;-44
2022/05/23 00:13:58;;;;;;;;;;;28.30;40.80;;;;;;5117174;28;976;-44
2022/05/23 00:16:26;;;;;;;;;;;28.30;40.80;;;;;;5116886;28;1014;-44
2022/05/23 00:18:53;;;;;;;;;;;28.30;40.80;;;;;;5116748;28;976;-43
2022/05/23 00:21:21;;;;;;;;;;;28.30;40.80;;;;;;5117464;28;1054;-43
2022/05/23 00:23:48;;;;;;;;;;;28.30;40.80;;;;;;5117257;28;1171;-44
2022/05/23 00:26:18;;;;;;;;;;;28.30;40.80;;;;;;5116771;28;1905;-45
2022/05/23 00:28:44;;;;;;;;;;;28.30;40.80;;;;;;5116958;28;1070;-44
2022/05/23 00:31:11;;;;;;;;;;;28.30;40.80;;;;;;5117261;28;987;-43
2022/05/23 00:36:24;;;;;;;;;;;28.30;40.90;;;;;;5116794;28;603;-42
2022/05/23 00:38:53;;;;;;;;;;;28.30;40.90;;;;;;5117590;28;1019;-44
2022/05/23 00:44:10;;;;;;;;;;;28.30;41.00;;;;;;5117170;28;900;-44
2022/05/23 00:46:48;;;;;;;;;;;28.30;40.90;;;;;;5116822;28;1909;-44
2022/05/23 00:49:16;;;;;;;;;;;28.20;40.90;;;;;;5116868;28;1153;-43
2022/05/23 00:51:44;;;;;;;;;;;28.30;41.00;;;;;;5116092;28;940;-44
2022/05/23 00:54:11;;;;;;;;;;;28.20;40.90;;;;;;5116848;28;1130;-44
2022/05/23 00:56:41;;;;;;;;;;;28.30;40.90;;;;;;5117504;28;957;-43
2022/05/23 00:59:09;;;;;;;;;;;28.30;41.00;;;;;;5116646;28;1011;-44
2022/05/23 01:01:37;;;;;;;;;;;28.30;41.00;;;;;;5117414;28;1212;-44
2022/05/23 01:04:05;;;;;;;;;;;28.30;41.00;;;;;;5116530;28;1075;-44
2022/05/23 01:06:32;;;;;;;;;;;28.20;40.90;;;;;;5114841;28;1913;-42
2022/05/23 01:09:00;;;;;;;;;;;28.20;42.00;;;;;;5116625;28;1000;-44
2022/05/23 01:11:27;;;;;;;;;;;28.30;41.00;;;;;;5122928;27;1015;-42
2022/05/23 01:13:54;;;;;;;;;;;28.20;41.00;;;;;;5122446;28;987;-44
2022/05/23 01:16:21;;;;;;;;;;;28.30;41.00;;;;;;5122754;28;976;-44
2022/05/23 01:18:48;;;;;;;;;;;28.30;41.00;;;;;;5124426;28;928;-44
2022/05/23 01:21:19;;;;;;;;;;;28.20;40.90;;;;;;5125461;27;1027;-44
2022/05/23 01:23:48;;;;;;;;;;;28.20;40.90;;;;;;5125484;28;985;-44
2022/05/23 01:26:16;;;;;;;;;;;28.20;41.00;;;;;;5124725;27;1995;-47
2022/05/23 01:28:43;;;;;;;;;;;28.20;40.90;;;;;;5125454;28;1011;-47
2022/05/23 01:31:11;;;;;;;;;;;28.30;40.90;;;;;;5125381;27;977;-48
2022/05/23 01:33:38;;;;;;;;;;;28.20;40.90;;;;;;5125147;28;1011;-47
2022/05/23 01:36:05;;;;;;;;;;;28.20;41.00;;;;;;5125045;27;945;-47
2022/05/23 01:38:32;;;;;;;;;;;28.20;40.90;;;;;;5123764;27;934;-43
2022/05/23 01:40:59;;;;;;;;;;;28.20;40.90;;;;;;5117102;27;884;-43
2022/05/23 01:43:28;;;;;;;;;;;28.20;40.90;;;;;;5123840;28;1027;-45
2022/05/23 01:45:54;;;;;;;;;;;28.20;40.90;;;;;;5124296;28;1905;-44
2022/05/23 01:48:21;;;;;;;;;;;28.20;41.00;;;;;;5123927;27;981;-44
2022/05/23 01:50:48;;;;;;;;;;;28.20;40.90;;;;;;5124239;28;940;-43
2022/05/23 01:53:14;;;;;;;;;;;28.20;42.00;;;;;;5124279;28;973;-44
2022/05/23 01:55:41;;;;;;;;;;;28.20;40.90;;;;;;5123839;27;1007;-44
2022/05/23 01:58:08;;;;;;;;;;;28.20;40.90;;;;;;5124428;27;2215;-44
2022/05/23 02:03:21;;;;;;;;;;;28.20;40.90;;;;;;5125508;27;887;-44
2022/05/23 02:05:48;;;;;;;;;;;28.20;40.90;;;;;;5123116;28;1974;-42
2022/05/23 02:08:15;;;;;;;;;;;28.20;40.90;;;;;;5123873;28;900;-44
2022/05/23 02:10:43;;;;;;;;;;;28.20;40.80;;;;;;5124633;28;1030;-43
2022/05/23 02:13:09;;;;;;;;;;;28.20;40.90;;;;;;5124503;28;970;-44
2022/05/23 02:15:37;;;;;;;;;;;28.20;40.90;;;;;;5124942;28;980;-42
2022/05/23 02:18:05;;;;;;;;;;;28.20;40.90;;;;;;5124066;27;1022;-44
2022/05/23 02:20:31;;;;;;;;;;;28.20;40.90;;;;;;5123425;28;1031;-43
2022/05/23 02:22:58;;;;;;;;;;;28.20;40.90;;;;;;5120685;28;953;-44
2022/05/23 02:25:26;;;;;;;;;;;28.20;40.90;;;;;;5120470;28;1986;-45
2022/05/23 02:27:52;;;;;;;;;;;28.20;40.90;;;;;;5120749;28;1022;-44
2022/05/23 02:30:19;;;;;;;;;;;28.20;40.80;;;;;;5120393;28;1000;-43
2022/05/23 02:32:48;;;;;;;;;;;28.20;40.80;;;;;;5120736;28;982;-44
2022/05/23 02:35:15;;;;;;;;;;;28.20;40.90;;;;;;5121320;28;1007;-44
2022/05/23 02:37:42;;;;;;;;;;;28.20;40.80;;;;;;5120445;28;953;-43
2022/05/23 02:40:09;;;;;;;;;;;28.20;40.80;;;;;;5119826;28;964;-44
2022/05/23 02:42:36;;;;;;;;;;;28.20;40.80;;;;;;5119444;28;948;-43
2022/05/23 02:45:03;;;;;;;;;;;28.20;40.80;;;;;;5119353;28;944;-47
2022/05/23 02:47:30;;;;;;;;;;;28.20;40.90;;;;;;5119588;28;1913;-47
2022/05/23 02:49:58;;;;;;;;;;;28.20;40.90;;;;;;5120768;28;999;-47
2022/05/23 02:52:24;;;;;;;;;;;28.20;40.90;;;;;;5120349;28;1043;-47
2022/05/23 02:54:51;;;;;;;;;;;28.20;40.90;;;;;;5120495;28;1015;-47
2022/05/23 02:57:18;;;;;;;;;;;28.20;40.90;;;;;;5120559;28;984;-47
2022/05/23 02:59:44;;;;;;;;;;;28.20;40.90;;;;;;5120280;28;1254;-47
2022/05/23 03:04:56;;;;;;;;;;;28.20;40.90;;;;;;5120129;28;600;-48
2022/05/23 03:07:24;;;;;;;;;;;28.20;40.90;;;;;;5119525;28;1982;-47
2022/05/23 03:09:50;;;;;;;;;;;28.20;40.90;;;;;;5120324;28;996;-47
2022/05/23 03:12:17;;;;;;;;;;;28.20;40.90;;;;;;5120206;28;1018;-47
2022/05/23 03:14:44;;;;;;;;;;;28.20;40.80;;;;;;5120199;28;984;-48
2022/05/23 03:17:10;;;;;;;;;;;28.20;40.90;;;;;;5120087;28;936;-47
2022/05/23 03:19:37;;;;;;;;;;;28.20;40.80;;;;;;5119534;28;1000;-47
2022/05/23 03:27:36;;;;;;;;;;;28.20;40.80;;;;;;5118915;28;1905;-47
2022/05/23 03:30:02;;;;;;;;;;;28.20;40.70;;;;;;5119933;28;948;-47
2022/05/23 03:32:29;;;;;;;;;;;28.20;40.90;;;;;;5119566;28;1007;-45
2022/05/23 03:34:56;;;;;;;;;;;28.10;40.80;;;;;;5119803;28;908;-45
2022/05/23 03:37:23;;;;;;;;;;;28.20;40.70;;;;;;5119648;28;948;-45
2022/05/23 03:39:51;;;;;;;;;;;28.20;40.70;;;;;;5118779;28;888;-46
2022/05/23 03:42:18;;;;;;;;;;;28.20;40.70;;;;;;5118802;28;1026;-45
2022/05/23 03:44:45;;;;;;;;;;;28.20;40.80;;;;;;5119267;28;1711;-45
2022/05/23 03:47:12;;;;;;;;;;;28.20;40.70;;;;;;5119090;28;1893;-45
2022/05/23 03:49:38;;;;;;;;;;;28.20;40.80;;;;;;5118777;28;937;-46
2022/05/23 03:52:05;;;;;;;;;;;28.10;40.70;;;;;;5118390;28;1014;-46
2022/05/23 03:54:32;;;;;;;;;;;28.20;40.70;;;;;;5119095;28;932;-45
2022/05/23 03:57:01;;;;;;;;;;;28.10;40.80;;;;;;5119419;28;980;-46
2022/05/23 03:59:28;;;;;;;;;;;28.10;40.70;;;;;;5118431;28;1063;-45
2022/05/23 04:01:57;;;;;;;;;;;28.10;40.70;;;;;;5119346;28;1020;-46
2022/05/23 04:04:24;;;;;;;;;;;28.10;40.70;;;;;;5117306;28;949;-45
2022/05/23 04:06:51;;;;;;;;;;;28.10;40.70;;;;;;5117731;28;1974;-46
2022/05/23 04:09:17;;;;;;;;;;;28.10;40.70;;;;;;5117719;28;1128;-46
2022/05/23 04:11:44;;;;;;;;;;;28.10;40.70;;;;;;5117322;28;928;-45
2022/05/23 04:14:12;;;;;;;;;;;28.10;40.70;;;;;;5116846;28;980;-45
2022/05/23 04:16:39;;;;;;;;;;;28.10;40.70;;;;;;5117294;28;980;-45
2022/05/23 04:19:08;;;;;;;;;;;28.10;40.70;;;;;;5117597;28;1235;-46
2022/05/23 04:21:35;;;;;;;;;;;28.20;40.70;;;;;;5117934;28;869;-45
2022/05/23 04:24:01;;;;;;;;;;;28.10;40.70;;;;;;5117394;28;1016;-46
2022/05/23 04:26:28;;;;;;;;;;;28.10;40.80;;;;;;5117076;28;1905;-45
2022/05/23 04:28:55;;;;;;;;;;;28.10;40.40;;;;;;5117236;28;932;-45
2022/05/23 04:31:23;;;;;;;;;;;28.10;39.90;;;;;;5117200;28;1033;-46
2022/05/23 04:36:34;;;;;;;;;;;28.10;39.50;;;;;;5115833;28;711;-43
2022/05/23 04:39:00;;;;;;;;;;;28.10;39.40;;;;;;5114992;28;940;-43
2022/05/23 04:41:27;;;;;;;;;;;28.10;39.30;;;;;;5116326;28;888;-44
2022/05/23 04:43:54;;;;;;;;;;;28.10;39.20;;;;;;5115732;28;954;-44
2022/05/23 04:46:21;;;;;;;;;;;28.00;39.20;;;;;;5115167;28;1980;-42
2022/05/23 04:51:33;;;;;;;;;;;28.00;39.00;;;;;;5114968;28;599;-43
2022/05/23 04:54:00;;;;;;;;;;;28.00;39.10;;;;;;5115356;28;897;-44
2022/05/23 04:56:27;;;;;;;;;;;27.90;39.00;;;;;;5115545;28;1035;-43
2022/05/23 04:58:55;;;;;;;;;;;28.00;39.10;;;;;;5116841;28;996;-44
2022/05/23 05:01:22;;;;;;;;;;;27.90;38.90;;;;;;5113572;28;907;-45
2022/05/23 05:03:53;;;;;;;;;;;28.00;38.90;;;;;;5114317;28;956;-44
2022/05/23 05:06:20;;;;;;;;;;;28.00;38.70;;;;;;5113785;28;1893;-44
2022/05/23 05:08:47;;;;;;;;;;;27.90;38.80;;;;;;5114809;28;959;-44
2022/05/23 05:11:13;;;;;;;;;;;28.00;38.90;;;;;;5113581;28;936;-44
2022/05/23 05:13:40;;;;;;;;;;;27.90;38.60;;;;;;5114662;28;1047;-43
2022/05/23 05:16:07;;;;;;;;;;;27.90;38.60;;;;;;5114358;28;946;-42
2022/05/23 05:18:34;;;;;;;;;;;27.90;38.60;;;;;;5113347;28;1004;-44
2022/05/23 05:21:04;;;;;;;;;;;27.90;38.50;;;;;;5113670;28;1860;-44
2022/05/23 05:23:32;;;;;;;;;;;27.90;38.60;;;;;;5113184;28;953;-43
2022/05/23 05:25:58;;;;;;;;;;;27.90;38.60;;;;;;5112205;28;949;-44
2022/05/23 05:28:25;;;;;;;;;;;27.80;38.50;;;;;;5114101;28;1981;-44
2022/05/23 05:30:54;;;;;;;;;;;27.90;38.40;;;;;;5113138;28;988;-44
2022/05/23 05:33:22;;;;;;;;;;;27.90;38.50;;;;;;5113347;28;988;-44
2022/05/23 05:35:52;;;;;;;;;;;27.90;38.50;;;;;;5114460;28;940;-48
2022/05/23 05:38:23;;;;;;;;;;;27.80;38.40;;;;;;5112506;28;1007;-48
2022/05/23 05:40:52;;;;;;;;;;;27.80;38.60;;;;;;5111525;28;900;-48
2022/05/23 05:43:23;;;;;;;;;;;27.90;38.60;;;;;;5101777;28;1772;-48
2022/05/23 05:45:54;;;;;;;;;;;27.80;38.30;;;;;;5092949;28;1044;-47
2022/05/23 05:48:21;;;;;;;;;;;27.80;38.30;;;;;;5092690;28;1981;-47
2022/05/23 05:50:48;;;;;;;;;;;27.80;38.40;;;;;;5096984;28;1848;-47
2022/05/23 05:53:17;;;;;;;;;;;27.80;38.30;;;;;;5094881;28;1014;-48
2022/05/23 05:55:46;;;;;;;;;;;27.80;38.50;;;;;;5094132;28;866;-48
2022/05/23 05:58:13;;;;;;;;;;;27.80;38.30;;;;;;5098099;28;1013;-33
2022/05/23 06:00:39;;;;;;;;;;;28.00;38.30;;;;;;5097832;28;1805;-33
2022/05/23 06:03:07;;;;;;;;;;;28.00;38.20;;;;;;5095868;28;1000;-34
2022/05/23 06:11:23;;;;;;;;;;;28.00;38.20;;;;;;5095615;28;904;-33
2022/05/23 06:11:26;;;;;;;;;;;28.00;38.20;;;;;;5097059;28;813;-33
2022/05/23 06:13:53;;;;;;;;;;;28.00;38.10;;;;;;5095588;28;1075;-33
2022/05/23 06:16:20;;;;;;;;;;;28.00;38.80;;;;;;5096748;28;1001;-33
2022/05/23 06:18:47;;;;;;;;;;;28.10;38.70;;;;;;5096428;28;992;-33
2022/05/23 06:21:14;;;;;;;;;;;28.10;38.70;;;;;;5096402;28;960;-33
2022/05/23 06:23:41;;;;;;;;;;;28.10;38.80;;;;;;5096694;28;1121;-33
2022/05/23 06:26:09;;;;;;;;;;;28.10;38.90;;;;;;5096156;28;1793;-33
2022/05/23 06:28:36;;;;;;;;;;;28.10;38.90;;;;;;5096217;28;1985;-33
2022/05/23 06:31:03;;;;;;;;;;;28.10;38.80;;;;;;5095505;28;884;-33
2022/05/23 06:33:30;;;;;;;;;;;28.10;38.80;;;;;;5095986;28;988;-33
2022/05/23 06:35:57;;;;;;;;;;;28.10;38.80;;;;;;5097310;28;1015;-35
2022/05/23 06:38:25;;;;;;;;;;;28.10;38.80;;;;;;5096974;28;1007;-34
2022/05/23 06:40:52;;;;;;;;;;;28.20;38.90;;;;;;5096386;28;957;-38
2022/05/23 06:43:20;;;;;;;;;;;28.30;38.80;;;;;;5096015;28;1015;-38
2022/05/23 06:45:47;;;;;;;;;;;28.30;38.90;;;;;;5096692;28;925;-37
2022/05/23 06:48:14;;;;;;;;;;;28.30;39.10;;;;;;5095662;28;1906;-39
2022/05/23 06:50:41;;;;;;;;;;;28.30;39.00;;;;;;5095333;28;1005;-38
2022/05/23 06:53:08;;;;;;;;;;;28.30;39.20;;;;;;5096155;28;1048;-40
2022/05/23 06:55:35;;;;;;;;;;;28.30;39.20;;;;;;5095102;28;944;-38
2022/05/23 06:58:01;;;;;;;;;;;28.20;39.20;;;;;;5095812;28;1015;-38
2022/05/23 07:00:30;;;;;;;;;;;28.30;39.30;;;;;;5095119;28;1023;-42
2022/05/23 07:02:56;;;;;;;;;;;28.30;39.20;;;;;;5096328;28;934;-42
2022/05/23 07:13:37;;;;;;;;;;;28.30;39.20;;;;;;5095768;28;877;-45
2022/05/23 07:16:06;;;;;;;;;;;28.30;39.30;;;;;;5097255;28;1019;-46
2022/05/23 07:18:32;;;;;;;;;;;28.30;39.20;;;;;;5095869;28;969;-44
2022/05/23 07:20:59;;;;;;;;;;;28.30;39.30;;;;;;5095454;28;1020;-43
2022/05/23 07:23:26;;;;;;;;;;;28.40;39.30;;;;;;5095193;28;985;-43
2022/05/23 07:25:53;;;;;;;;;;;28.30;39.40;;;;;;5095654;28;925;-44
2022/05/23 07:28:20;;;;;;;;;;;28.30;39.40;;;;;;5096920;28;1983;-46
2022/05/23 07:30:48;;;;;;;;;;;28.30;39.40;;;;;;5095728;28;877;-44
2022/05/23 07:33:16;;;;;;;;;;;28.30;39.30;;;;;;5096526;28;1088;-44
2022/05/23 07:35:43;;;;;;;;;;;28.30;39.40;;;;;;5096373;28;1039;-44
2022/05/23 07:38:10;;;;;;;;;;;28.30;39.50;;;;;;5096670;28;1004;-44
2022/05/23 07:40:37;;;;;;;;;;;28.30;39.40;;;;;;5096242;28;893;-44
2022/05/23 07:43:03;;;;;;;;;;;28.30;39.60;;;;;;5095562;28;980;-44
2022/05/23 07:45:30;;;;;;;;;;;28.30;39.60;;;;;;5095793;28;936;-44
2022/05/23 07:47:57;;;;;;;;;;;28.30;39.60;;;;;;5096794;28;2009;-44
2022/05/23 07:50:25;;;;;;;;;;;28.30;39.60;;;;;;5095263;28;1058;-44
2022/05/23 08:01:04;;;;;;;;;;;28.30;39.60;;;;;;5054302;28;722;-44
2022/05/23 08:03:31;;;;;;;;;;;28.30;39.50;;;;;;5054506;28;921;-44
2022/05/23 08:05:59;;;;;;;;;;;28.30;39.70;;;;;;5053564;28;978;-44
2022/05/23 08:08:26;;;;;;;;;;;28.30;39.60;;;;;;5055721;28;1902;-44
2022/05/23 08:10:52;;;;;;;;;;;28.30;39.60;;;;;;5055113;28;933;-44
2022/05/23 08:13:19;;;;;;;;;;;28.30;39.60;;;;;;5055482;28;1029;-46
2022/05/23 08:15:46;;;;;;;;;;;28.30;40.70;;;;;;5055180;28;969;-45
2022/05/23 08:18:15;;;;;;;;;;;28.30;39.60;;;;;;5055557;28;979;-46
2022/05/23 08:20:41;;;;;;;;;;;28.30;39.60;;;;;;5053764;28;1012;-46
2022/05/23 08:23:10;;;;;;;;;;;28.30;39.60;;;;;;5054268;28;1005;-46
2022/05/23 08:25:36;;;;;;;;;;;28.30;39.60;;;;;;5055332;28;1070;-46
2022/05/23 08:28:03;;;;;;;;;;;28.30;39.60;;;;;;5054464;28;1914;-43
2022/05/23 08:30:30;;;;;;;;;;;28.30;39.60;;;;;;5055001;28;1025;-44
2022/05/23 08:32:56;;;;;;;;;;;28.30;39.70;;;;;;5054691;28;1002;-46
2022/05/23 08:35:24;;;;;;;;;;;28.30;39.70;;;;;;5055411;28;917;-46
2022/05/23 08:37:54;;;;;;;;;;;28.30;39.80;;;;;;5054916;28;1049;-46
2022/05/23 08:40:26;;;;;;;;;;;28.30;39.70;;;;;;5054748;28;1024;-44
2022/05/23 08:42:56;;;;;;;;;;;28.30;39.70;;;;;;5054190;28;1029;-44
2022/05/23 08:45:25;;;;;;;;;;;28.30;39.80;;;;;;5054773;28;1790;-44
2022/05/23 08:47:56;;;;;;;;;;;28.30;39.70;;;;;;5054437;28;1941;-43
2022/05/23 08:50:25;;;;;;;;;;;28.30;39.70;;;;;;5054277;28;1576;-44
2022/05/23 08:52:54;;;;;;;;;;;28.30;39.60;;;;;;5054348;28;1015;-44
2022/05/23 08:55:23;;;;;;;;;;;28.30;39.80;;;;;;5054962;28;954;-44
2022/05/23 08:57:56;;;;;;;;;;;28.30;39.70;;;;;;5054880;28;1022;-44
2022/05/23 09:00:26;;;;;;;;;;;28.30;39.70;;;;;;5084388;28;1126;-43
2022/05/23 09:02:55;;;;;;;;;;;28.40;39.80;;;;;;5094449;28;1039;-44
2022/05/23 09:05:25;;;;;;;;;;;28.40;39.80;;;;;;5095172;28;984;-44
2022/05/23 09:07:54;;;;;;;;;;;28.40;39.70;;;;;;5093747;28;1976;-46
2022/05/23 09:10:24;;;;;;;;;;;28.40;39.80;;;;;;5094377;28;753;-44
2022/05/23 09:12:54;;;;;;;;;;;28.40;39.70;;;;;;5094161;28;1087;-44
2022/05/23 09:15:22;;;;;;;;;;;28.40;39.70;;;;;;5093528;28;1062;-44
2022/05/23 09:17:52;;;;;;;;;;;28.50;39.70;;;;;;5094328;28;1841;-44
2022/05/23 09:20:22;;;;;;;;;;;28.50;39.60;;;;;;5094127;28;976;-44
2022/05/23 09:22:51;;;;;;;;;;;28.40;39.80;;;;;;5094750;28;993;-44
2022/05/23 09:25:20;;;;;;;;;;;28.50;39.70;;;;;;5094359;28;949;-44
2022/05/23 09:27:48;;;;;;;;;;;28.50;39.70;;;;;;5095363;28;1905;-44
2022/05/23 09:30:17;;;;;;;;;;;28.50;39.70;;;;;;5095606;28;1012;-44
2022/05/23 09:32:48;;;;;;;;;;;28.40;39.80;;;;;;5098921;28;988;-44
2022/05/23 09:35:16;;;;;;;;;;;28.50;39.80;;;;;;5098502;28;1068;-43
2022/05/23 09:37:44;;;;;;;;;;;28.50;39.80;;;;;;5096570;28;937;-44
2022/05/23 09:40:21;;;;;;;;;;;28.50;39.80;;;;;;5098646;28;949;-44
2022/05/23 09:48:18;;;;;;;;;;;28.40;39.80;;;;;;5099338;28;1906;-43
2022/05/23 09:50:46;;;;;;;;;;;28.50;39.90;;;;;;5096819;28;1137;-44
2022/05/23 09:53:24;;;;;;;;;;;28.40;39.80;;;;;;5097985;28;1023;-44
2022/05/23 09:55:50;;;;;;;;;;;28.50;39.90;;;;;;5097919;28;942;-44
2022/05/23 09:58:26;;;;;;;;;;;28.50;39.90;;;;;;5098178;28;889;-44
2022/05/23 10:00:59;;;;;;;;;;;28.50;39.90;;;;;;5099305;28;1123;-44
2022/05/23 10:03:27;;;;;;;;;;;28.50;39.90;;;;;;5098779;28;1015;-43
2022/05/23 10:06:02;;;;;;;;;;;28.50;39.90;;;;;;5098031;28;941;-44
2022/05/23 10:08:31;;;;;;;;;;;28.50;39.90;;;;;;5096112;28;1989;-44
2022/05/23 10:10:59;;;;;;;;;;;28.50;39.90;;;;;;5099392;28;937;-44
2022/05/23 10:13:28;;;;;;;;;;;28.60;39.90;;;;;;5098351;28;932;-44
2022/05/23 10:15:58;;;;;;;;;;;28.60;40.10;;;;;;5097744;28;1044;-44
2022/05/23 10:18:26;;;;;;;;;;;28.60;39.90;;;;;;5097479;28;1052;-46
2022/05/23 10:20:53;;;;;;;;;;;28.60;39.90;;;;;;5097257;28;691;-44
2022/05/23 10:23:22;;;;;;;;;;;28.60;39.90;;;;;;5097447;28;929;-46
2022/05/23 10:25:56;;;;;;;;;;;28.60;39.90;;;;;;5098161;28;1012;-44
2022/05/23 10:28:27;;;;;;;;;;;28.60;39.90;;;;;;5096536;28;1906;-44
2022/05/23 10:30:58;;;;;;;;;;;28.60;40.00;;;;;;5097411;28;1052;-44
2022/05/23 10:33:27;;;;;;;;;;;28.50;39.90;;;;;;5097359;28;996;-44
2022/05/23 10:35:59;;;;;;;;;;;28.50;40.00;;;;;;5098152;28;876;-44
2022/05/23 10:44:05;;;;;;;;;;;28.60;39.80;;;;;;5096611;28;908;-45
2022/05/23 10:46:36;;;;;;;;;;;28.60;39.90;;;;;;5097096;28;1004;-44
2022/05/23 10:49:08;;;;;;;;;;;28.60;39.90;;;;;;5095132;28;1972;-45
2022/05/23 10:51:38;;;;;;;;;;;28.60;39.80;;;;;;5095225;28;937;-44
2022/05/23 10:54:16;;;;;;;;;;;28.70;39.90;;;;;;5094782;28;993;-44
2022/05/23 10:56:53;;;;;;;;;;;28.70;40.00;;;;;;5093792;28;1000;-44
2022/05/23 10:59:22;;;;;;;;;;;28.60;39.90;;;;;;5093870;28;1151;-43
2022/05/23 11:01:55;;;;;;;;;;;28.60;39.90;;;;;;5093936;28;1099;-44
2022/05/23 11:04:28;;;;;;;;;;;28.70;40.00;;;;;;5094506;28;1004;-44
2022/05/23 11:07:02;;;;;;;;;;;28.70;39.90;;;;;;5095505;28;980;-44
2022/05/23 11:09:31;;;;;;;;;;;28.70;39.90;;;;;;5091925;28;1894;-43
2022/05/23 11:12:03;;;;;;;;;;;28.70;41.00;;;;;;5093726;28;916;-44
2022/05/23 11:14:37;;;;;;;;;;;28.70;39.90;;;;;;5093501;28;980;-45
2022/05/23 11:17:10;;;;;;;;;;;28.70;39.80;;;;;;5093338;28;902;-46
2022/05/23 11:19:47;;;;;;;;;;;28.70;39.90;;;;;;5090104;28;949;-46
2022/05/23 11:22:16;;;;;;;;;;;28.70;39.90;;;;;;5093265;28;961;-46
2022/05/23 11:24:48;;;;;;;;;;;28.70;39.90;;;;;;5093871;28;981;-44
2022/05/23 11:35:47;;;;;;;;;;;28.70;39.90;;;;;;5094081;28;605;-44
2022/05/23 11:38:14;;;;;;;;;;;28.70;40.00;;;;;;5092820;28;960;-44
2022/05/23 11:40:52;;;;;;;;;;;28.70;39.90;;;;;;5094751;28;969;-46
2022/05/23 11:43:21;;;;;;;;;;;28.80;40.00;;;;;;5093850;28;972;-46
2022/05/23 11:45:59;;;;;;;;;;;28.80;40.00;;;;;;5092920;28;996;-44
2022/05/23 11:48:56;;;;;;;;;;;28.80;39.90;;;;;;5093940;28;1910;-44
2022/05/23 11:51:31;;;;;;;;;;;28.80;39.90;;;;;;5094424;28;1009;-44
2022/05/23 11:54:03;;;;;;;;;;;28.80;39.90;;;;;;5094130;28;932;-44
2022/05/23 11:56:36;;;;;;;;;;;28.80;40.00;;;;;;5093013;28;973;-44
2022/05/23 11:59:04;;;;;;;;;;;28.80;39.90;;;;;;5093581;28;1039;-44
2022/05/23 12:01:31;;;;;;;;;;;28.80;39.90;;;;;;5094606;28;1027;-44
2022/05/23 12:04:08;;;;;;;;;;;28.80;39.90;;;;;;5093777;28;988;-44
2022/05/23 12:06:39;;;;;;;;;;;28.80;40.00;;;;;;5093334;28;1016;-44
2022/05/23 12:09:06;;;;;;;;;;;28.80;40.00;;;;;;5093745;28;1909;-44
2022/05/23 12:11:34;;;;;;;;;;;28.80;39.90;;;;;;5093944;28;989;-43
2022/05/23 12:14:14;;;;;;;;;;;28.80;39.90;;;;;;5093918;28;1007;-44
2022/05/23 12:16:44;;;;;;;;;;;28.80;40.00;;;;;;5094888;28;1517;-44
2022/05/23 12:19:22;;;;;;;;;;;28.90;40.00;;;;;;5092956;28;876;-43
2022/05/23 12:21:50;;;;;;;;;;;28.90;40.00;;;;;;5092760;28;1024;-44
2022/05/23 12:24:28;;;;;;;;;;;28.90;39.90;;;;;;5094188;28;1020;-44
2022/05/23 12:26:56;;;;;;;;;;;28.90;39.90;;;;;;5093614;28;953;-44
2022/05/23 12:29:28;;;;;;;;;;;28.90;39.90;;;;;;5093259;28;1984;-44
2022/05/23 12:32:12;;;;;;;;;;;28.90;39.80;;;;;;5093558;28;1008;-43
2022/05/23 12:34:43;;;;;;;;;;;28.90;39.80;;;;;;5088567;28;1496;-44
2022/05/23 12:37:17;;;;;;;;;;;28.90;39.90;;;;;;5115432;28;1040;-43
2022/05/23 12:40:01;;;;;;;;;;;28.90;39.80;;;;;;5115901;28;825;-44
2022/05/23 12:42:35;;;;;;;;;;;28.90;39.80;;;;;;5114077;28;1398;-44
2022/05/23 12:45:05;;;;;;;;;;;28.90;39.80;;;;;;5114664;28;995;-44
2022/05/23 12:47:43;;;;;;;;;;;28.90;39.90;;;;;;5115541;28;1005;-44
2022/05/23 12:50:15;;;;;;;;;;;28.90;40.00;;;;;;5117001;28;1978;-44
2022/05/23 12:52:55;;;;;;;;;;;28.90;40.00;;;;;;5116498;28;988;-44
2022/05/23 12:55:30;;;;;;;;;;;28.90;40.00;;;;;;5114225;28;1159;-44
2022/05/23 12:58:05;;;;;;;;;;;28.90;40.00;;;;;;5116369;28;983;-44
2022/05/23 13:00:33;;;;;;;;;;;28.90;40.00;;;;;;5115927;28;1259;-44
2022/05/23 13:03:07;;;;;;;;;;;28.90;40.20;;;;;;5115355;28;1030;-44
2022/05/23 13:05:36;;;;;;;;;;;28.90;40.00;;;;;;5113468;28;1041;-44
2022/05/23 13:08:07;;;;;;;;;;;28.90;40.00;;;;;;5114123;28;979;-44
2022/05/23 13:10:36;;;;;;;;;;;28.90;40.00;;;;;;5113447;28;1914;-44
2022/05/23 13:13:06;;;;;;;;;;;28.90;39.90;;;;;;5113054;28;984;-44
2022/05/23 13:15:34;;;;;;;;;;;28.90;40.00;;;;;;5111531;28;1031;-44
2022/05/23 13:23:37;;;;;;;;;;;28.80;40.00;;;;;;5113535;28;1005;-44
2022/05/23 13:26:06;;;;;;;;;;;28.90;40.00;;;;;;5113224;28;953;-44
2022/05/23 13:28:38;;;;;;;;;;;28.90;40.10;;;;;;5112759;28;1361;-45
2022/05/23 13:31:21;;;;;;;;;;;28.90;40.10;;;;;;5113376;28;980;-44
2022/05/23 13:33:47;;;;;;;;;;;28.80;40.10;;;;;;5112828;28;919;-45
2022/05/23 13:36:14;;;;;;;;;;;28.80;40.30;;;;;;5112303;28;968;-44
2022/05/23 13:38:57;;;;;;;;;;;28.70;40.20;;;;;;5112799;28;984;-45
2022/05/23 13:41:29;;;;;;;;;;;28.80;40.30;;;;;;5113170;28;999;-44
2022/05/23 13:43:56;;;;;;;;;;;28.80;40.30;;;;;;5114250;28;1004;-44
2022/05/23 13:46:24;;;;;;;;;;;28.80;40.30;;;;;;5114437;28;1007;-44
2022/05/23 13:48:52;;;;;;;;;;;28.80;40.30;;;;;;5113428;28;1898;-44
2022/05/23 13:51:21;;;;;;;;;;;28.80;40.30;;;;;;5113485;28;1859;-40
2022/05/23 13:53:50;;;;;;;;;;;28.80;40.40;;;;;;5112880;28;941;-47
2022/05/23 13:56:18;;;;;;;;;;;28.80;40.30;;;;;;5112944;28;972;-43
2022/05/23 13:58:47;;;;;;;;;;;28.80;40.20;;;;;;5113019;28;1125;-47
2022/05/23 14:01:19;;;;;;;;;;;28.80;40.30;;;;;;5113331;28;1813;-43
2022/05/23 14:03:47;;;;;;;;;;;28.80;40.30;;;;;;5113019;28;1012;-38
2022/05/23 14:06:18;;;;;;;;;;;28.80;40.10;;;;;;5113800;28;1015;-44
2022/05/23 14:08:47;;;;;;;;;;;28.90;40.20;;;;;;5112559;28;1949;-44
2022/05/23 14:11:21;;;;;;;;;;;28.90;40.10;;;;;;5111414;28;1976;-44
2022/05/23 14:13:48;;;;;;;;;;;28.90;40.10;;;;;;5112183;28;945;-47
2022/05/23 14:16:17;;;;;;;;;;;28.90;40.10;;;;;;5112248;28;1858;-47
2022/05/23 14:18:44;;;;;;;;;;;28.90;40.10;;;;;;5116409;28;1015;-47
2022/05/23 14:21:25;;;;;;;;;;;28.90;40.30;;;;;;5115335;28;895;-42
2022/05/23 14:23:53;;;;;;;;;;;28.80;40.20;;;;;;5115081;28;1589;-36
2022/05/23 14:26:21;;;;;;;;;;;28.80;40.30;;;;;;5115322;28;1039;-37
2022/05/23 14:28:50;;;;;;;;;;;28.90;40.30;;;;;;5115318;28;1017;-42
2022/05/23 14:31:29;;;;;;;;;;;28.90;40.30;;;;;;5116317;28;1929;-44
2022/05/23 14:33:58;;;;;;;;;;;28.90;40.20;;;;;;5114233;28;1031;-43
2022/05/23 14:36:26;;;;;;;;;;;28.90;40.20;;;;;;5113758;28;995;-43
2022/05/23 14:38:54;;;;;;;;;;;28.90;40.30;;;;;;5115365;28;1004;-44
2022/05/23 14:41:26;;;;;;;;;;;28.90;40.30;;;;;;5115205;28;952;-44
2022/05/23 14:43:58;;;;;;;;;;;28.90;40.20;;;;;;5117052;28;895;-43
2022/05/23 14:46:26;;;;;;;;;;;28.90;40.20;;;;;;5117846;28;960;-44
2022/05/23 14:48:54;;;;;;;;;;;28.90;40.30;;;;;;5118097;28;1008;-43
2022/05/23 14:51:26;;;;;;;;;;;28.90;40.20;;;;;;5116816;28;1988;-43
2022/05/23 14:56:44;;;;;;;;;;;28.90;40.20;;;;;;5116205;28;695;-42
2022/05/23 15:01:59;;;;;;;;;;;28.90;40.20;;;;;;5117628;28;990;-43
2022/05/23 15:04:28;;;;;;;;;;;28.90;40.20;;;;;;5116923;28;1004;-43
2022/05/23 15:06:55;;;;;;;;;;;29.00;40.20;;;;;;5115407;28;975;-43
2022/05/23 15:09:23;;;;;;;;;;;28.90;40.20;;;;;;5113864;28;1983;-42
2022/05/23 15:11:51;;;;;;;;;;;28.90;40.30;;;;;;5115062;28;932;-43
2022/05/23 15:14:18;;;;;;;;;;;28.90;40.20;;;;;;5115578;28;1248;-42
2022/05/23 15:16:46;;;;;;;;;;;29.00;40.20;;;;;;5116014;28;830;-42
2022/05/23 15:19:16;;;;;;;;;;;28.90;40.30;;;;;;5115445;28;1423;-43
2022/05/23 15:21:43;;;;;;;;;;;28.90;40.30;;;;;;5115086;28;960;-43
2022/05/23 15:24:11;;;;;;;;;;;28.90;40.40;;;;;;5115918;28;1034;-44
2022/05/23 15:26:39;;;;;;;;;;;28.80;40.50;;;;;;5114693;28;976;-43
2022/05/23 15:29:07;;;;;;;;;;;28.90;40.50;;;;;;5116378;27;1003;-41
2022/05/23 15:31:39;;;;;;;;;;;28.90;40.50;;;;;;5116221;28;1979;-44
2022/05/23 15:34:06;;;;;;;;;;;28.80;40.40;;;;;;5114196;28;986;-43
2022/05/23 15:36:33;;;;;;;;;;;28.80;40.40;;;;;;5116818;28;992;-43
2022/05/23 15:38:59;;;;;;;;;;;28.80;40.50;;;;;;5116755;28;933;-43
2022/05/23 15:41:26;;;;;;;;;;;28.80;40.40;;;;;;5116725;28;665;-44
2022/05/23 15:43:53;;;;;;;;;;;28.80;40.50;;;;;;5117086;28;1004;-39
2022/05/23 15:46:23;;;;;;;;;;;28.90;40.50;;;;;;5117341;28;913;-42
2022/05/23 15:48:50;;;;;;;;;;;28.80;40.40;;;;;;5117685;28;940;-43
2022/05/23 15:51:18;;;;;;;;;;;28.90;40.40;;;;;;5115179;28;1890;-44
2022/05/23 15:53:45;;;;;;;;;;;28.80;40.40;;;;;;5116085;28;991;-42
2022/05/23 15:56:13;;;;;;;;;;;28.90;40.40;;;;;;5115946;28;889;-42
2022/05/23 15:58:41;;;;;;;;;;;28.90;40.50;;;;;;5116433;28;1594;-44